Weather at Zürich Airport

Public forecast

Using degrees Celsius for public forecast. Weather courtesy of forecast.io.

Current aviation weather report (METAR) for Zürich Airport

Retrieved 2021/10/22 05:20 UTC (52 minutes ago):

LSZH 220520Z 20004KT 9999 FEW011 SCT016 BKN045 09/08 Q1018 NOSIG

Aviation forecast (TAF) for Zürich Airport

Retrieved 2021/10/22 06:33 UTC (0 seconds ago):

TAF LSZH 220525Z 2206/2312 22005KT 9999 FEW010 BKN045 TX12/2214Z TN09/2206Z TN01/2306Z TEMPO 2208/2216 28008KT BECMG 2216/2219 CAVOK BECMG 2222/2224 4500 MIFG BECMG 2300/2303 1500 BCFG SCT003 PROB40 2302/2307 0200 FG VV001 PROB30 2306/2310 01005KT 5000 BKN008 BECMG 2309/2312 03005KT CAVOK